createdAt,value
2019-06-08T00:02:31.738Z,16.01
2019-06-08T00:05:21.355Z,16.00
2019-06-08T00:08:10.269Z,15.99
2019-06-08T00:10:59.629Z,16.00
2019-06-08T00:13:48.436Z,15.99
2019-06-08T00:16:38.505Z,16.00
2019-06-08T00:19:28.240Z,15.99
2019-06-08T00:22:17.697Z,15.98
2019-06-08T00:25:07.005Z,15.99
2019-06-08T00:27:55.841Z,15.97
2019-06-08T00:30:45.545Z,15.97
2019-06-08T00:33:35.343Z,15.96
2019-06-08T00:36:25.033Z,15.97
2019-06-08T00:39:14.730Z,15.95
2019-06-08T00:42:03.745Z,15.94
2019-06-08T00:44:53.013Z,15.94
2019-06-08T00:47:47.910Z,15.94
2019-06-08T00:50:36.569Z,15.93
2019-06-08T00:53:25.669Z,15.89
2019-06-08T00:56:14.876Z,15.89
2019-06-08T00:59:04.712Z,15.87
2019-06-08T01:01:54.190Z,15.86
2019-06-08T01:04:45.375Z,15.84
2019-06-08T01:07:34.886Z,15.82
2019-06-08T01:10:25.572Z,15.80
2019-06-08T01:13:16.168Z,15.78
2019-06-08T01:16:05.765Z,15.77
2019-06-08T01:18:55.277Z,15.77
2019-06-08T01:21:45.454Z,15.74
2019-06-08T01:24:34.759Z,15.71
2019-06-08T01:27:24.279Z,15.70
2019-06-08T01:30:14.107Z,15.68
2019-06-08T01:33:03.835Z,15.66
2019-06-08T01:35:52.744Z,15.65
2019-06-08T01:38:42.106Z,15.62
2019-06-08T01:41:31.874Z,15.61
2019-06-08T01:44:21.608Z,15.59
2019-06-08T01:47:11.259Z,15.57
2019-06-08T01:50:00.594Z,15.56
2019-06-08T01:52:50.371Z,15.54
2019-06-08T01:55:39.655Z,15.53
2019-06-08T01:58:29.466Z,15.52
2019-06-08T02:01:18.726Z,15.51
2019-06-08T02:04:08.950Z,15.50
2019-06-08T02:06:58.389Z,15.49
2019-06-08T02:09:47.849Z,15.48
2019-06-08T02:12:36.485Z,15.47
2019-06-08T02:15:31.809Z,15.47
2019-06-08T02:18:35.326Z,15.45
2019-06-08T02:21:12.435Z,15.45
2019-06-08T02:24:01.886Z,15.44
2019-06-08T02:26:52.106Z,15.43
2019-06-08T02:29:42.207Z,15.42
2019-06-08T02:32:33.489Z,15.39
2019-06-08T02:35:23.119Z,15.39
2019-06-08T02:38:12.565Z,15.36
2019-06-08T02:41:02.173Z,15.39
2019-06-08T02:43:51.907Z,15.38
2019-06-08T02:46:42.104Z,15.36
2019-06-08T02:49:33.206Z,15.35
2019-06-08T02:52:23.053Z,15.36
2019-06-08T02:55:13.821Z,15.36
2019-06-08T02:58:03.893Z,15.33
2019-06-08T03:00:58.206Z,15.30
2019-06-08T03:03:45.905Z,15.28
2019-06-08T03:06:36.591Z,15.27
2019-06-08T03:09:26.847Z,15.26
2019-06-08T03:12:16.660Z,15.24
2019-06-08T03:15:07.618Z,15.22
2019-06-08T03:17:56.999Z,15.23
2019-06-08T03:20:45.733Z,15.20
2019-06-08T03:23:36.278Z,15.17
2019-06-08T03:26:25.020Z,15.15
2019-06-08T03:29:14.425Z,15.14
2019-06-08T03:32:03.167Z,15.10
2019-06-08T03:34:56.524Z,15.08
2019-06-08T03:37:44.481Z,15.06
2019-06-08T03:40:33.932Z,15.04
2019-06-08T03:43:23.576Z,15.03
2019-06-08T03:46:13.156Z,15.01
2019-06-08T03:49:01.971Z,14.99
2019-06-08T03:51:51.645Z,14.98
2019-06-08T03:54:42.569Z,14.97
2019-06-08T03:57:31.827Z,14.94
2019-06-08T04:00:20.990Z,14.92
2019-06-08T04:03:10.917Z,14.90
2019-06-08T04:06:00.088Z,14.87
2019-06-08T04:08:49.961Z,14.86
2019-06-08T04:11:42.025Z,14.82
2019-06-08T04:14:30.743Z,14.81
2019-06-08T04:17:19.963Z,14.81
2019-06-08T04:20:11.649Z,14.78
2019-06-08T04:22:59.550Z,14.76
2019-06-08T04:25:50.648Z,14.74
2019-06-08T04:28:40.604Z,14.71
2019-06-08T04:31:30.704Z,14.71
2019-06-08T04:34:19.858Z,14.71
2019-06-08T04:37:09.173Z,14.70
2019-06-08T04:39:58.269Z,14.67
2019-06-08T04:42:49.350Z,14.67
2019-06-08T04:45:39.231Z,14.66
2019-06-08T04:48:29.587Z,14.65
2019-06-08T04:51:18.330Z,14.64
2019-06-08T04:54:07.908Z,14.65
2019-06-08T04:56:57.291Z,14.62
2019-06-08T04:59:48.395Z,14.63
2019-06-08T05:02:39.217Z,14.64
2019-06-08T05:05:27.785Z,14.63
2019-06-08T05:08:17.610Z,14.61
2019-06-08T05:11:06.962Z,14.63
2019-06-08T05:13:56.228Z,14.63
2019-06-08T05:16:45.380Z,14.63
2019-06-08T05:19:35.060Z,14.62
2019-06-08T05:22:24.689Z,14.63
2019-06-08T05:25:14.491Z,14.64
2019-06-08T05:28:04.250Z,14.65
2019-06-08T05:30:53.644Z,14.65
2019-06-08T05:33:43.429Z,14.66
2019-06-08T05:36:33.129Z,14.65
2019-06-08T05:39:22.887Z,14.63
2019-06-08T05:42:12.134Z,14.66
2019-06-08T05:45:01.235Z,14.65
2019-06-08T05:47:51.046Z,14.66
2019-06-08T05:50:54.933Z,14.64
2019-06-08T05:53:31.265Z,14.66
2019-06-08T05:56:20.230Z,14.66
2019-06-08T05:59:10.138Z,14.67
2019-06-08T06:01:59.664Z,14.70
2019-06-08T07:02:32.720Z,15.00
2019-06-08T07:05:21.468Z,14.99
2019-06-08T07:08:11.004Z,14.99
2019-06-08T07:11:00.302Z,15.03
2019-06-08T07:13:50.810Z,15.02
2019-06-08T07:16:40.693Z,15.02
2019-06-08T07:19:30.458Z,15.03
2019-06-08T07:22:20.397Z,15.01
2019-06-08T07:25:10.011Z,14.99
2019-06-08T07:27:59.370Z,15.01
2019-06-08T07:30:49.262Z,15.00
2019-06-08T07:33:38.614Z,14.99
2019-06-08T07:36:28.183Z,14.99
2019-06-08T07:39:17.673Z,15.00
2019-06-08T07:42:07.453Z,15.01
2019-06-08T07:44:56.850Z,15.03
2019-06-08T07:47:47.854Z,15.05
2019-06-08T07:50:37.908Z,15.06
2019-06-08T07:53:26.950Z,15.08
2019-06-08T07:56:16.862Z,15.11
2019-06-08T07:59:06.093Z,15.10
2019-06-08T08:01:56.061Z,15.13
2019-06-08T08:04:46.077Z,15.13
2019-06-08T08:07:34.844Z,15.16
2019-06-08T08:10:24.476Z,15.17
2019-06-08T08:13:14.032Z,15.18
2019-06-08T08:16:02.987Z,15.16
2019-06-08T08:18:53.411Z,15.19
2019-06-08T08:21:43.485Z,15.21
2019-06-08T08:24:33.356Z,15.23
2019-06-08T08:27:22.399Z,15.24
2019-06-08T08:30:11.166Z,15.25
2019-06-08T08:33:02.986Z,15.26
2019-06-08T08:35:52.172Z,15.26
2019-06-08T08:38:42.647Z,15.26
2019-06-08T08:41:32.305Z,15.27
2019-06-08T08:44:21.392Z,15.28
2019-06-08T08:47:10.862Z,15.29
2019-06-08T08:50:01.865Z,15.28
2019-06-08T08:52:52.281Z,15.25
2019-06-08T08:55:42.285Z,15.23
2019-06-08T08:58:31.056Z,15.20
2019-06-08T09:01:20.531Z,15.19
2019-06-08T09:04:10.676Z,15.17
2019-06-08T09:07:05.507Z,15.15
2019-06-08T09:09:51.992Z,15.14
2019-06-08T09:12:41.183Z,15.15
2019-06-08T09:15:31.535Z,15.14
2019-06-08T09:18:21.316Z,15.12
2019-06-08T09:21:11.048Z,15.11
2019-06-08T09:24:03.509Z,15.10
2019-06-08T09:26:53.084Z,15.09
2019-06-08T09:29:42.717Z,15.09
2019-06-08T09:32:32.812Z,15.08
2019-06-08T09:35:21.811Z,15.06
2019-06-08T09:38:11.850Z,15.03
2019-06-08T09:41:05.138Z,15.01
2019-06-08T09:43:55.262Z,14.99
2019-06-08T09:46:43.529Z,14.96
2019-06-08T09:49:33.006Z,14.95
2019-06-08T09:52:22.676Z,14.91
2019-06-08T09:55:11.646Z,14.91
2019-06-08T09:58:05.123Z,14.90
2019-06-08T10:00:54.572Z,14.89
2019-06-08T10:03:43.519Z,14.89
2019-06-08T10:06:32.904Z,14.88
2019-06-08T10:09:22.364Z,14.89
2019-06-08T10:12:12.030Z,14.90
2019-06-08T10:15:02.858Z,14.91
2019-06-08T10:17:53.521Z,14.92
2019-06-08T10:20:44.053Z,14.91
2019-06-08T10:23:34.660Z,14.93
2019-06-08T10:26:24.574Z,14.96
2019-06-08T10:29:13.753Z,15.00
2019-06-08T10:32:03.828Z,15.05
2019-06-08T10:34:53.568Z,15.09
2019-06-08T10:37:43.130Z,15.14
2019-06-08T10:40:32.366Z,15.17
2019-06-08T10:43:22.169Z,15.21
2019-06-08T10:46:16.994Z,15.23
2019-06-08T10:49:05.941Z,15.23
2019-06-08T10:51:55.184Z,15.22
2019-06-08T10:54:48.768Z,15.25
2019-06-08T10:57:38.540Z,15.25
2019-06-08T11:00:29.297Z,15.30
2019-06-08T11:03:20.176Z,15.39
2019-06-08T11:06:13.047Z,15.49
2019-06-08T11:09:06.091Z,15.54
2019-06-08T11:11:58.372Z,15.60
2019-06-08T11:14:48.164Z,15.66
2019-06-08T11:17:38.017Z,15.75
2019-06-08T11:20:27.603Z,15.85
2019-06-08T11:23:19.289Z,15.96
2019-06-08T11:26:19.121Z,16.04
2019-06-08T11:29:02.768Z,16.16
2019-06-08T11:31:53.612Z,16.28
2019-06-08T11:34:44.717Z,16.37
2019-06-08T11:37:40.957Z,16.44
2019-06-08T11:40:30.168Z,16.50
2019-06-08T11:43:21.809Z,16.55
2019-06-08T11:46:12.658Z,16.57
2019-06-08T11:49:06.176Z,16.61
2019-06-08T11:51:54.127Z,16.64
2019-06-08T11:54:47.907Z,16.67
2019-06-08T11:57:40.427Z,16.71
2019-06-08T12:01:00.892Z,16.73
2019-06-08T12:03:48.397Z,16.72
2019-06-08T12:06:38.251Z,16.70
2019-06-08T12:09:28.812Z,16.68
2019-06-08T12:12:21.376Z,16.64
2019-06-08T12:15:13.199Z,16.63
2019-06-08T12:18:01.574Z,16.60
2019-06-08T12:20:52.563Z,16.61
2019-06-08T12:23:43.215Z,16.69
2019-06-08T12:26:33.765Z,16.81
2019-06-08T12:29:23.198Z,16.96
2019-06-08T12:32:14.314Z,17.10
2019-06-08T12:35:03.443Z,17.18
2019-06-08T12:37:52.961Z,17.26
2019-06-08T12:40:42.336Z,17.30
2019-06-08T12:43:31.146Z,17.32
2019-06-08T12:46:21.479Z,17.30
2019-06-08T12:49:12.907Z,17.29
2019-06-08T12:52:02.178Z,17.22
2019-06-08T12:55:02.491Z,17.18
2019-06-08T12:57:43.336Z,17.13
2019-06-08T13:00:32.714Z,17.08
2019-06-08T13:03:22.427Z,16.99
2019-06-08T13:06:12.493Z,16.93
2019-06-08T13:09:02.666Z,16.91
2019-06-08T13:11:51.346Z,16.92
2019-06-08T13:14:41.188Z,16.94
2019-06-08T13:17:30.629Z,16.95
2019-06-08T13:20:22.387Z,16.91
2019-06-08T13:23:12.997Z,16.87
2019-06-08T13:26:02.779Z,16.83
2019-06-08T13:28:52.458Z,16.81
2019-06-08T13:31:41.860Z,16.81
2019-06-08T13:34:31.155Z,16.80
2019-06-08T13:37:22.080Z,16.79
2019-06-08T13:40:15.218Z,16.89
2019-06-08T13:43:04.761Z,17.01
2019-06-08T13:45:54.335Z,17.11
2019-06-08T13:48:45.178Z,17.25
2019-06-08T13:51:34.567Z,17.37
2019-06-08T13:54:25.398Z,17.53
2019-06-08T13:57:15.042Z,17.66
2019-06-08T14:00:05.008Z,17.84
2019-06-08T14:02:54.160Z,17.99
2019-06-08T14:05:42.836Z,18.17
2019-06-08T14:08:33.062Z,18.26
2019-06-08T14:11:24.092Z,18.30
2019-06-08T14:14:13.931Z,18.41
2019-06-08T14:17:08.347Z,18.55
2019-06-08T14:19:59.327Z,18.69
2019-06-08T14:22:50.416Z,18.82
2019-06-08T14:25:50.612Z,18.98
2019-06-08T14:28:30.440Z,19.06
2019-06-08T14:31:23.263Z,19.06
2019-06-08T14:34:11.671Z,19.06
2019-06-08T14:37:01.012Z,19.06
2019-06-08T14:39:50.472Z,19.04
2019-06-08T14:42:40.031Z,19.04
2019-06-08T14:45:32.250Z,19.01
2019-06-08T14:48:25.551Z,19.11
2019-06-08T14:51:12.128Z,19.26
2019-06-08T14:54:00.680Z,19.40
2019-06-08T14:56:50.182Z,19.48
2019-06-08T14:59:39.824Z,19.55
2019-06-08T15:02:31.286Z,19.69
2019-06-08T15:05:21.514Z,19.83
2019-06-08T15:08:12.094Z,19.86
2019-06-08T15:11:03.808Z,19.87
2019-06-08T15:13:53.960Z,19.92
2019-06-08T15:16:44.583Z,20.06
2019-06-08T15:19:33.569Z,20.18
2019-06-08T15:22:22.722Z,20.33
2019-06-08T15:25:13.507Z,20.44
2019-06-08T15:28:02.965Z,20.48
2019-06-08T15:30:52.482Z,20.54
2019-06-08T15:33:41.944Z,20.58
2019-06-08T15:36:32.540Z,20.64
2019-06-08T15:39:23.390Z,20.71
2019-06-08T15:42:13.388Z,20.68
2019-06-08T15:45:02.322Z,20.76
2019-06-08T15:47:52.527Z,20.83
2019-06-08T15:50:42.735Z,20.84
2019-06-08T15:53:33.041Z,20.90
2019-06-08T15:56:43.145Z,21.00
2019-06-08T15:59:18.238Z,21.11
2019-06-08T16:02:07.580Z,21.24
2019-06-08T16:04:57.258Z,21.35
2019-06-08T16:07:46.276Z,21.50
2019-06-08T16:10:35.846Z,21.64
2019-06-08T16:13:26.705Z,21.76
2019-06-08T16:16:16.408Z,21.91
2019-06-08T16:19:06.214Z,22.07
2019-06-08T16:21:55.405Z,22.20
2019-06-08T16:24:45.055Z,22.30
2019-06-08T16:27:35.898Z,22.41
2019-06-08T16:30:26.639Z,22.14
2019-06-08T16:33:16.729Z,22.33
2019-06-08T16:36:07.601Z,22.47
2019-06-08T16:38:57.565Z,22.43
2019-06-08T16:41:47.047Z,22.41
2019-06-08T16:44:36.461Z,22.34
2019-06-08T16:47:26.982Z,22.27
2019-06-08T16:50:24.511Z,22.21
2019-06-08T16:53:09.801Z,22.17
2019-06-08T16:55:58.434Z,22.06
2019-06-08T16:58:47.501Z,21.93
2019-06-08T17:01:38.937Z,21.82
2019-06-08T17:04:28.839Z,21.70
2019-06-08T17:07:18.762Z,21.79
2019-06-08T17:10:09.594Z,21.81
2019-06-08T17:12:58.801Z,21.75
2019-06-08T17:15:48.602Z,21.71
2019-06-08T17:18:38.721Z,21.63
2019-06-08T17:21:30.119Z,21.50
2019-06-08T17:24:19.762Z,21.40
2019-06-08T17:27:25.855Z,21.29
2019-06-08T17:30:08.328Z,21.18
2019-06-08T17:32:53.937Z,21.08
2019-06-08T17:35:43.049Z,20.94
2019-06-08T17:38:31.847Z,20.81
2019-06-08T17:41:21.090Z,20.69
2019-06-08T17:44:10.447Z,20.55
2019-06-08T17:46:59.306Z,20.44
2019-06-08T17:49:49.018Z,20.34
2019-06-08T17:52:41.038Z,20.22
2019-06-08T17:55:33.139Z,20.12
2019-06-08T17:58:24.898Z,20.02
2019-06-08T18:01:14.675Z,19.92
2019-06-08T18:04:04.313Z,19.82
2019-06-08T18:06:53.465Z,19.74
2019-06-08T18:09:48.333Z,19.68
2019-06-08T18:12:40.767Z,19.61
2019-06-08T18:15:28.482Z,19.51
2019-06-08T18:18:19.282Z,19.44
2019-06-08T18:21:08.852Z,19.36
2019-06-08T18:23:58.491Z,19.28
2019-06-08T18:26:48.927Z,19.23
2019-06-08T18:29:39.634Z,19.17
2019-06-08T18:32:28.803Z,19.11
2019-06-08T18:35:21.537Z,19.06
2019-06-08T18:38:14.129Z,18.99
2019-06-08T18:41:03.809Z,18.92
2019-06-08T18:43:58.202Z,18.83
2019-06-08T18:46:50.627Z,18.75
2019-06-08T18:49:42.592Z,18.69
2019-06-08T18:52:31.319Z,18.58
2019-06-08T18:55:20.964Z,18.51
2019-06-08T18:58:24.632Z,18.43
2019-06-08T19:01:22.909Z,18.35
2019-06-08T19:04:12.707Z,18.27
2019-06-08T19:07:02.770Z,18.18
2019-06-08T19:09:51.925Z,18.09
2019-06-08T19:12:43.288Z,18.06
2019-06-08T19:15:39.866Z,17.98
2019-06-08T19:18:29.305Z,17.92
2019-06-08T19:21:42.825Z,17.85
2019-06-08T19:24:39.029Z,17.81
2019-06-08T19:27:27.754Z,17.72
2019-06-08T19:30:20.368Z,17.66
2019-06-08T19:33:10.655Z,17.60
2019-06-08T19:35:59.364Z,17.54
2019-06-08T19:38:54.198Z,17.50
2019-06-08T19:41:41.511Z,17.46
2019-06-08T19:44:35.104Z,17.40
2019-06-08T19:47:27.616Z,17.36
2019-06-08T19:50:18.563Z,17.31
2019-06-08T19:53:08.958Z,17.25
2019-06-08T19:55:59.163Z,17.21
2019-06-08T19:59:00.930Z,17.15
2019-06-08T20:01:41.540Z,17.10
2019-06-08T20:04:38.609Z,17.04
2019-06-08T20:07:28.409Z,16.98
2019-06-08T20:10:17.587Z,16.91
2019-06-08T20:13:09.052Z,16.85
2019-06-08T20:16:02.207Z,16.80
2019-06-08T20:18:51.671Z,16.74
2019-06-08T20:21:41.019Z,16.71
2019-06-08T20:24:30.171Z,16.66
2019-06-08T20:27:21.703Z,16.63
2019-06-08T20:30:12.328Z,16.59
2019-06-08T20:33:03.581Z,16.56
2019-06-08T20:35:53.979Z,16.52
2019-06-08T20:38:44.755Z,16.49
2019-06-08T20:41:37.630Z,16.46
2019-06-08T20:44:29.921Z,16.44
2019-06-08T20:47:17.911Z,16.40
2019-06-08T20:50:08.127Z,16.38
2019-06-08T20:52:57.986Z,16.33
2019-06-08T20:55:51.191Z,16.30
2019-06-08T20:58:45.368Z,16.27
2019-06-08T21:01:36.299Z,16.24
2019-06-08T21:04:27.675Z,16.21
2019-06-08T21:07:17.513Z,16.19
2019-06-08T21:10:08.311Z,16.16
2019-06-08T21:12:58.788Z,16.12
2019-06-08T21:15:52.633Z,16.10
2019-06-08T21:18:38.477Z,16.07
2019-06-08T21:21:28.303Z,16.03
2019-06-08T21:24:17.946Z,15.99
2019-06-08T21:27:08.326Z,15.96
2019-06-08T21:30:06.011Z,15.92
2019-06-08T21:32:51.682Z,15.88
2019-06-08T21:35:39.341Z,15.86
2019-06-08T21:38:28.593Z,15.80
2019-06-08T21:41:18.276Z,15.77
2019-06-08T21:44:17.359Z,15.73
2019-06-08T21:47:07.881Z,15.69
2019-06-08T21:50:00.376Z,15.65
2019-06-08T21:52:51.937Z,15.61
2019-06-08T21:55:42.015Z,15.57
2019-06-08T21:58:30.659Z,15.56
2019-06-08T22:01:20.179Z,15.51
2019-06-08T22:04:08.828Z,15.49
2019-06-08T22:06:59.635Z,15.46
2019-06-08T22:09:48.622Z,15.44
2019-06-08T22:12:40.462Z,15.41
2019-06-08T22:15:28.117Z,15.38
2019-06-08T22:18:18.423Z,15.34
2019-06-08T22:21:08.102Z,15.30
2019-06-08T22:23:59.268Z,15.26
2019-06-08T22:26:47.931Z,15.24
2019-06-08T22:29:38.286Z,15.20
2019-06-08T22:32:27.868Z,15.16
2019-06-08T22:35:18.566Z,15.14
2019-06-08T22:38:08.569Z,15.10
2019-06-08T22:41:00.001Z,15.08
2019-06-08T22:43:49.584Z,15.05
2019-06-08T22:46:38.499Z,15.02
2019-06-08T22:49:28.084Z,14.99
2019-06-08T22:52:18.640Z,14.95
2019-06-08T22:55:10.925Z,14.92
2019-06-08T22:58:01.909Z,14.89
2019-06-08T23:00:53.070Z,14.86
2019-06-08T23:03:42.809Z,14.83
2019-06-08T23:06:34.487Z,14.81
2019-06-08T23:09:23.151Z,14.77
2019-06-08T23:12:12.542Z,14.75
2019-06-08T23:15:02.343Z,14.72
2019-06-08T23:17:52.979Z,14.68
2019-06-08T23:20:43.348Z,14.65
2019-06-08T23:23:33.903Z,14.64
2019-06-08T23:26:24.207Z,14.61
2019-06-08T23:29:13.576Z,14.57
2019-06-08T23:32:04.874Z,14.55
2019-06-08T23:34:54.319Z,14.51
2019-06-08T23:37:44.368Z,14.50
2019-06-08T23:40:33.082Z,14.47
2019-06-08T23:43:22.636Z,14.43
2019-06-08T23:46:12.031Z,14.42
2019-06-08T23:49:02.442Z,14.40
2019-06-08T23:51:52.020Z,14.38
2019-06-08T23:54:40.667Z,14.35
2019-06-08T23:57:30.156Z,14.31
